createdAt,value
2023-04-02T00:01:36.243Z,94453.00
2023-04-02T00:04:08.320Z,94455.20
2023-04-02T00:06:43.932Z,94453.40
2023-04-02T00:09:12.814Z,94452.00
2023-04-02T00:11:47.798Z,94449.60
2023-04-02T00:14:30.802Z,94452.20
2023-04-02T00:17:00.691Z,94448.80
2023-04-02T00:20:08.416Z,94448.20
2023-04-02T00:22:34.411Z,94451.20
2023-04-02T00:25:10.449Z,94451.40
2023-04-02T00:27:36.439Z,94454.40
2023-04-02T00:30:03.586Z,94458.00
2023-04-02T00:32:35.640Z,94454.80
2023-04-02T00:35:02.013Z,94459.20
2023-04-02T00:37:41.493Z,94463.20
2023-04-02T00:40:24.072Z,94464.40
2023-04-02T00:42:53.117Z,94470.20
2023-04-02T00:45:29.424Z,94470.00
2023-04-02T00:47:58.986Z,94468.40
2023-04-02T00:50:39.853Z,94469.40
2023-04-02T00:53:26.491Z,94470.40
2023-04-02T00:55:52.854Z,94471.20
2023-04-02T00:58:28.188Z,94474.60
2023-04-02T01:00:54.078Z,94471.00
2023-04-02T01:03:33.823Z,94475.00
2023-04-02T01:06:09.816Z,94473.80
2023-04-02T01:08:56.907Z,94472.00
2023-04-02T01:11:35.026Z,94472.60
2023-04-02T01:14:29.136Z,94471.60
2023-04-02T01:17:32.596Z,94477.20
2023-04-02T01:20:42.325Z,94478.60
2023-04-02T01:23:46.343Z,94475.60
2023-04-02T01:26:24.779Z,94477.40
2023-04-02T01:29:30.468Z,94474.20
2023-04-02T01:32:11.658Z,94474.20
2023-04-02T01:34:38.894Z,94474.40
2023-04-02T01:37:22.805Z,94479.40
2023-04-02T01:40:13.827Z,94478.80
2023-04-02T01:43:01.765Z,94484.00
2023-04-02T01:45:28.921Z,94482.40
2023-04-02T01:47:55.972Z,94489.60
2023-04-02T01:50:36.339Z,94490.60
2023-04-02T01:53:10.052Z,94492.40
2023-04-02T01:55:56.574Z,94495.80
2023-04-02T01:58:26.586Z,94494.00
2023-04-02T02:01:07.722Z,94501.40
2023-04-02T02:03:34.282Z,94497.00
2023-04-02T02:06:02.784Z,94500.80
2023-04-02T02:08:31.740Z,94500.20
2023-04-02T02:10:58.746Z,94501.80
2023-04-02T02:13:24.797Z,94504.20
2023-04-02T02:15:51.572Z,94505.40
2023-04-02T02:18:26.834Z,94510.20
2023-04-02T02:20:54.331Z,94514.40
2023-04-02T02:23:20.877Z,94517.80
2023-04-02T02:25:47.423Z,94517.40
2023-04-02T02:28:27.511Z,94520.00
2023-04-02T02:31:01.225Z,94521.60
2023-04-02T02:33:50.337Z,94522.40
2023-04-02T02:36:48.603Z,94529.40
2023-04-02T02:39:42.399Z,94533.20
2023-04-02T02:42:31.349Z,94536.80
2023-04-02T02:45:01.838Z,94540.20
2023-04-02T02:47:31.819Z,94540.00
2023-04-02T02:50:19.607Z,94540.40
2023-04-02T02:52:51.338Z,94543.20
2023-04-02T02:55:22.416Z,94542.40
2023-04-02T02:57:58.857Z,94544.40
2023-04-02T03:00:26.405Z,94542.40
2023-04-02T03:02:55.822Z,94547.40
2023-04-02T03:05:26.025Z,94548.20
2023-04-02T03:07:56.748Z,94553.20
2023-04-02T03:10:37.614Z,94551.00
2023-04-02T03:13:27.317Z,94556.20
2023-04-02T03:16:12.372Z,94557.60
2023-04-02T03:19:06.738Z,94555.80
2023-04-02T03:21:47.993Z,94549.40
2023-04-02T03:24:27.241Z,94550.40
2023-04-02T03:27:09.905Z,94553.40
2023-04-02T03:29:43.297Z,94560.20
2023-04-02T03:32:21.879Z,94559.00
2023-04-02T03:34:57.815Z,94565.40
2023-04-02T03:37:33.423Z,94565.40
2023-04-02T03:40:08.194Z,94566.00
2023-04-02T03:43:12.617Z,94569.80
2023-04-02T03:45:56.476Z,94572.20
2023-04-02T03:48:41.835Z,94579.60
2023-04-02T03:51:46.330Z,94579.80
2023-04-02T03:54:15.952Z,94585.00
2023-04-02T03:56:46.676Z,94586.60
2023-04-02T04:00:02.179Z,94588.80
2023-04-02T04:02:40.787Z,94590.40
2023-04-02T04:05:20.638Z,94587.60
2023-04-02T04:07:51.290Z,94595.20
2023-04-02T04:10:24.464Z,94597.00
2023-04-02T04:12:54.794Z,94596.20
2023-04-02T04:15:25.505Z,94597.60
2023-04-02T04:18:01.393Z,94597.20
2023-04-02T04:20:45.377Z,94608.80
2023-04-02T04:23:29.833Z,94609.60
2023-04-02T04:26:09.187Z,94620.20
2023-04-02T04:28:57.702Z,94616.80
2023-04-02T04:31:38.166Z,94621.00
2023-04-02T04:34:12.270Z,94621.80
2023-04-02T04:36:53.348Z,94625.60
2023-04-02T04:39:41.969Z,94626.60
2023-04-02T04:42:17.792Z,94633.00
2023-04-02T04:44:55.464Z,94631.60
2023-04-02T04:47:40.226Z,94635.40
2023-04-02T04:50:20.279Z,94640.20
2023-04-02T04:52:46.523Z,94642.00
2023-04-02T04:55:27.935Z,94642.60
2023-04-02T04:58:03.349Z,94646.20
2023-04-02T05:01:04.327Z,94653.00
2023-04-02T05:03:34.846Z,94654.40
2023-04-02T05:06:42.796Z,94653.60
2023-04-02T05:09:54.935Z,94656.60
2023-04-02T05:12:47.881Z,94664.00
2023-04-02T05:15:29.910Z,94669.00
2023-04-02T05:18:23.118Z,94671.20
2023-04-02T05:21:15.893Z,94671.20
2023-04-02T05:24:03.235Z,94676.00
2023-04-02T05:26:37.373Z,94682.60
2023-04-02T05:29:16.704Z,94684.00
2023-04-02T05:32:00.539Z,94689.20
2023-04-02T05:34:32.887Z,94690.80
2023-04-02T05:36:58.958Z,94693.40
2023-04-02T05:39:26.680Z,94697.00
2023-04-02T05:42:08.334Z,94700.40
2023-04-02T05:45:30.501Z,94699.00
2023-04-02T05:47:59.322Z,94700.60
2023-04-02T05:50:43.545Z,94703.20
2023-04-02T05:53:30.294Z,94709.00
2023-04-02T05:56:10.816Z,94713.80
2023-04-02T05:59:27.596Z,94713.00
2023-04-02T06:02:03.983Z,94720.60
2023-04-02T06:05:04.223Z,94722.60
2023-04-02T06:08:10.615Z,94725.20
2023-04-02T06:10:53.536Z,94720.60
2023-04-02T06:13:22.614Z,94728.00
2023-04-02T06:15:48.779Z,94727.00
2023-04-02T06:18:26.849Z,94734.20
2023-04-02T06:20:53.992Z,94735.20
2023-04-02T06:23:47.565Z,94737.00
2023-04-02T06:26:35.228Z,94743.40
2023-04-02T06:29:16.933Z,94743.00
2023-04-02T06:32:12.311Z,94739.80
2023-04-02T06:34:41.991Z,94740.00
2023-04-02T06:37:33.007Z,94741.80
2023-04-02T06:40:38.826Z,94744.20
2023-04-02T06:43:45.350Z,94742.80
2023-04-02T06:46:44.934Z,94751.40
2023-04-02T06:49:20.674Z,94752.00
2023-04-02T06:51:51.269Z,94756.60
2023-04-02T06:54:17.899Z,94765.00
2023-04-02T06:56:50.895Z,94766.80
2023-04-02T06:59:26.189Z,94773.60
2023-04-02T07:02:17.896Z,94781.00
2023-04-02T07:04:43.999Z,94791.80
2023-04-02T07:07:10.052Z,94788.00
2023-04-02T07:09:38.761Z,94792.00
2023-04-02T07:12:13.011Z,94791.20
2023-04-02T07:14:39.268Z,94792.60
2023-04-02T07:17:05.294Z,94792.00
2023-04-02T07:19:31.788Z,94793.20
2023-04-02T07:21:58.811Z,94794.20
2023-04-02T07:24:29.931Z,94795.20
2023-04-02T07:26:55.902Z,94802.60
2023-04-02T07:29:21.751Z,94800.20
2023-04-02T07:31:47.979Z,94803.80
2023-04-02T07:34:13.904Z,94804.00
2023-04-02T07:36:39.960Z,94802.00
2023-04-02T07:39:05.879Z,94804.80
2023-04-02T07:41:31.893Z,94806.60
2023-04-02T07:43:57.875Z,94812.20
2023-04-02T07:46:25.193Z,94811.80
2023-04-02T07:48:51.164Z,94816.20
2023-04-02T07:51:22.163Z,94824.20
2023-04-02T07:53:49.706Z,94825.80
2023-04-02T07:56:18.961Z,94825.80
2023-04-02T07:58:45.764Z,94829.00
2023-04-02T08:01:20.325Z,94831.60
2023-04-02T08:03:47.423Z,94837.80
2023-04-02T08:06:13.706Z,94837.40
2023-04-02T08:08:39.896Z,94842.20
2023-04-02T08:11:06.045Z,94844.40
2023-04-02T08:13:31.972Z,94837.80
2023-04-02T08:15:59.895Z,94840.40
2023-04-02T08:18:26.423Z,94846.20
2023-04-02T08:20:52.875Z,94851.00
2023-04-02T08:23:19.323Z,94850.60
2023-04-02T08:25:46.017Z,94849.20
2023-04-02T08:28:12.028Z,94852.80
2023-04-02T08:30:38.336Z,94853.80
2023-04-02T08:33:04.934Z,94859.80
2023-04-02T08:35:30.986Z,94858.60
2023-04-02T08:37:57.168Z,94853.20
2023-04-02T08:40:36.232Z,94854.60
2023-04-02T08:43:41.183Z,94858.60
2023-04-02T08:46:30.594Z,94863.40
2023-04-02T08:49:03.028Z,94862.20
2023-04-02T08:51:35.040Z,94866.00
2023-04-02T08:54:30.775Z,94868.00
2023-04-02T08:57:43.629Z,94865.60
2023-04-02T09:00:37.954Z,94873.20
2023-04-02T09:03:21.332Z,94874.60
2023-04-02T09:05:49.726Z,94877.00
2023-04-02T09:08:23.803Z,94874.20
2023-04-02T09:11:07.606Z,94873.60
2023-04-02T09:13:41.269Z,94877.60
2023-04-02T09:16:11.013Z,94875.00
2023-04-02T09:18:38.577Z,94880.40
2023-04-02T09:21:29.879Z,94883.20
2023-04-02T09:23:57.209Z,94878.00
2023-04-02T09:26:30.453Z,94875.60
2023-04-02T09:32:56.836Z,94884.40
2023-04-02T09:38:34.867Z,94894.60
2023-04-02T09:41:05.076Z,94896.60
2023-04-02T09:43:35.132Z,94904.20
2023-04-02T09:46:21.957Z,94898.00
2023-04-02T09:49:00.554Z,94891.00
2023-04-02T09:51:33.630Z,94891.60
2023-04-02T09:54:02.638Z,94898.00
2023-04-02T09:56:31.257Z,94894.40
2023-04-02T09:59:12.423Z,94893.00
2023-04-02T10:01:55.259Z,94898.60
2023-04-02T10:04:43.802Z,94901.00
2023-04-02T10:07:37.774Z,94911.20
2023-04-02T10:10:37.190Z,94914.40
2023-04-02T10:13:35.184Z,94919.80
2023-04-02T10:16:27.198Z,94922.00
2023-04-02T10:19:32.213Z,94920.40
2023-04-02T10:22:03.541Z,94925.40
2023-04-02T10:24:29.441Z,94929.60
2023-04-02T10:27:16.829Z,94929.80
2023-04-02T10:30:09.764Z,94926.40
2023-04-02T10:32:53.947Z,94920.80
2023-04-02T10:35:52.406Z,94918.40
2023-04-02T10:38:31.081Z,94922.40
2023-04-02T10:41:21.459Z,94917.40
2023-04-02T10:44:19.603Z,94923.60
2023-04-02T10:47:10.889Z,94921.80
2023-04-02T10:50:11.609Z,94920.40
2023-04-02T10:52:48.762Z,94926.20
2023-04-02T10:55:21.611Z,94929.40
2023-04-02T10:57:47.908Z,94934.20
2023-04-02T11:00:22.148Z,94934.80
2023-04-02T11:03:06.454Z,94943.40
2023-04-02T11:05:46.316Z,94943.00
2023-04-02T11:08:24.180Z,94940.40
2023-04-02T11:11:04.576Z,94942.80
2023-04-02T11:13:36.696Z,94950.60
2023-04-02T11:16:03.182Z,94950.60
2023-04-02T11:18:36.775Z,94950.20
2023-04-02T11:21:24.083Z,94956.20
2023-04-02T11:24:00.437Z,94959.40
2023-04-02T11:26:37.561Z,94959.00
2023-04-02T11:29:26.922Z,94961.80
2023-04-02T11:32:20.937Z,94963.40
2023-04-02T11:35:03.110Z,94964.20
2023-04-02T11:37:36.755Z,94964.40
2023-04-02T11:40:44.373Z,94967.00
2023-04-02T11:43:40.799Z,94970.20
2023-04-02T11:46:19.366Z,94974.80
2023-04-02T11:48:45.311Z,94978.80
2023-04-02T11:51:21.751Z,94981.60
2023-04-02T11:53:53.248Z,94983.80
2023-04-02T11:56:28.349Z,94986.20
2023-04-02T11:59:31.970Z,94988.60
2023-04-02T12:02:23.089Z,94987.80
2023-04-02T12:05:26.946Z,94984.80
2023-04-02T12:08:32.577Z,94983.00
2023-04-02T12:11:01.990Z,94976.80
2023-04-02T12:13:40.085Z,94984.40
2023-04-02T12:16:08.426Z,94981.60
2023-04-02T12:18:35.811Z,94981.40
2023-04-02T12:21:02.562Z,94986.60
2023-04-02T12:23:31.756Z,94987.20
2023-04-02T12:26:05.800Z,94980.60
2023-04-02T12:28:33.148Z,94987.20
2023-04-02T12:31:12.618Z,94991.60
2023-04-02T12:33:40.790Z,94992.60
2023-04-02T12:36:27.253Z,94993.20
2023-04-02T12:38:57.199Z,94990.60
2023-04-02T12:41:26.282Z,94993.60
2023-04-02T12:44:04.410Z,94999.40
2023-04-02T12:46:34.092Z,95012.40
2023-04-02T12:49:07.355Z,95015.80
2023-04-02T12:51:35.816Z,95013.60
2023-04-02T12:54:02.654Z,95018.60
2023-04-02T12:56:28.806Z,95026.20
2023-04-02T12:59:00.161Z,95024.40
2023-04-02T13:01:30.716Z,95032.80
2023-04-02T13:04:14.078Z,95033.80
2023-04-02T13:06:47.453Z,95037.00
2023-04-02T13:09:33.300Z,95042.20
2023-04-02T13:11:59.511Z,95039.80
2023-04-02T13:14:26.434Z,95038.20
2023-04-02T13:16:52.526Z,95040.00
2023-04-02T13:19:25.030Z,95041.00
2023-04-02T13:21:52.324Z,95044.80
2023-04-02T13:24:28.647Z,95045.20
2023-04-02T13:27:00.993Z,95046.80
2023-04-02T13:29:32.989Z,95044.40
2023-04-02T13:32:12.592Z,95052.20
2023-04-02T13:34:38.455Z,95051.60
2023-04-02T13:37:04.362Z,95048.60
2023-04-02T13:39:30.360Z,95054.20
2023-04-02T13:42:02.396Z,95051.00
2023-04-02T13:44:31.878Z,95057.40
2023-04-02T13:46:59.112Z,95057.80
2023-04-02T13:49:25.927Z,95058.40
2023-04-02T13:51:58.765Z,95058.80
2023-04-02T13:54:35.215Z,95061.40
2023-04-02T13:59:53.620Z,95059.40
2023-04-02T14:02:24.156Z,95056.80
2023-04-02T14:05:02.607Z,95061.60
2023-04-02T14:07:56.369Z,95067.60
2023-04-02T14:10:37.900Z,95071.00
2023-04-02T14:13:31.105Z,95077.60
2023-04-02T14:16:06.361Z,95083.00
2023-04-02T14:19:00.107Z,95081.60
2023-04-02T14:21:43.186Z,95084.00
2023-04-02T14:24:50.267Z,95090.60
2023-04-02T14:27:22.381Z,95090.80
2023-04-02T14:30:03.210Z,95091.20
2023-04-02T14:32:57.676Z,95091.80
2023-04-02T14:35:45.556Z,95093.60
2023-04-02T14:38:28.108Z,95097.20
2023-04-02T14:41:29.519Z,95101.60
2023-04-02T14:44:04.636Z,95109.60
2023-04-02T14:46:36.846Z,95108.80
2023-04-02T14:49:22.945Z,95109.40
2023-04-02T14:51:56.131Z,95114.40
2023-04-02T14:54:38.192Z,95110.20
2023-04-02T14:57:20.671Z,95116.00
2023-04-02T15:00:05.046Z,95115.40
2023-04-02T15:02:48.573Z,95120.80
2023-04-02T15:05:22.074Z,95124.00
2023-04-02T15:08:19.247Z,95127.00
2023-04-02T15:11:29.450Z,95128.20
2023-04-02T15:14:11.888Z,95129.60
2023-04-02T15:16:37.959Z,95131.60
2023-04-02T15:19:13.070Z,95135.00
2023-04-02T15:22:27.739Z,95141.20
2023-04-02T15:25:20.282Z,95141.40
2023-04-02T15:28:26.314Z,95147.40
2023-04-02T15:30:58.105Z,95143.20
2023-04-02T15:33:26.883Z,95145.60
2023-04-02T15:36:15.265Z,95148.80
2023-04-02T15:38:49.926Z,95147.40
2023-04-02T15:41:26.841Z,95147.20
2023-04-02T15:44:12.000Z,95150.40
2023-04-02T15:47:20.065Z,95153.80
2023-04-02T15:49:48.927Z,95157.00
2023-04-02T15:52:29.475Z,95158.60
2023-04-02T15:56:29.909Z,95169.00
2023-04-02T15:59:29.292Z,95173.20
2023-04-02T16:01:58.989Z,95180.60
2023-04-02T16:04:55.976Z,95182.80
2023-04-02T16:07:44.405Z,95186.60
2023-04-02T16:10:41.220Z,95183.00
2023-04-02T16:13:11.910Z,95189.00
2023-04-02T16:15:47.023Z,95193.60
2023-04-02T16:18:51.282Z,95199.20
2023-04-02T16:24:16.069Z,95215.00
2023-04-02T16:27:39.561Z,95214.80
2023-04-02T16:30:35.518Z,95221.40
2023-04-02T16:33:12.518Z,95234.20
2023-04-02T16:35:57.523Z,95233.00
2023-04-02T16:38:35.489Z,95238.00
2023-04-02T16:41:08.521Z,95240.40
2023-04-02T16:44:10.978Z,95247.00
2023-04-02T16:46:56.234Z,95250.00
2023-04-02T16:49:37.655Z,95252.20
2023-04-02T16:52:21.233Z,95255.80
2023-04-02T16:55:12.154Z,95262.20
2023-04-02T16:58:25.088Z,95262.80
2023-04-02T17:01:07.764Z,95266.80
2023-04-02T17:06:47.720Z,95276.20
2023-04-02T17:10:15.024Z,95283.00
2023-04-02T17:13:16.199Z,95288.80
2023-04-02T17:15:50.525Z,95290.40
2023-04-02T17:18:23.993Z,95300.00
2023-04-02T17:20:50.869Z,95304.00
2023-04-02T17:23:19.080Z,95308.40
2023-04-02T17:25:52.620Z,95309.60
2023-04-02T17:28:28.514Z,95315.60
2023-04-02T17:30:59.733Z,95317.80
2023-04-02T17:33:27.744Z,95331.20
2023-04-02T17:35:59.796Z,95330.60
2023-04-02T17:38:39.204Z,95338.40
2023-04-02T17:41:16.057Z,95340.00
2023-04-02T17:44:26.162Z,95345.80
2023-04-02T17:47:16.346Z,95351.40
2023-04-02T17:50:17.022Z,95353.00
2023-04-02T17:53:26.600Z,95360.40
2023-04-02T17:56:10.370Z,95366.20
2023-04-02T17:59:13.672Z,95375.20
2023-04-02T18:02:05.323Z,95380.80
2023-04-02T18:04:50.094Z,95385.60
2023-04-02T18:07:40.553Z,95394.60
2023-04-02T18:10:30.983Z,95395.60
2023-04-02T18:13:04.704Z,95403.40
2023-04-02T18:15:50.328Z,95409.40
2023-04-02T18:19:02.921Z,95414.20
2023-04-02T18:22:00.985Z,95418.00
2023-04-02T18:24:42.277Z,95422.00
2023-04-02T18:27:31.197Z,95425.40
2023-04-02T18:30:26.532Z,95433.80
2023-04-02T18:33:35.046Z,95439.80
2023-04-02T18:36:23.006Z,95443.80
2023-04-02T18:39:03.856Z,95453.60
2023-04-02T18:41:42.099Z,95456.80
2023-04-02T18:45:22.069Z,95455.60
2023-04-02T18:48:03.519Z,95468.80
2023-04-02T18:50:40.076Z,95481.60
2023-04-02T18:53:21.323Z,95479.00
2023-04-02T18:56:03.356Z,95484.80
2023-04-02T18:58:48.765Z,95484.40
2023-04-02T19:01:30.358Z,95493.00
2023-04-02T19:04:04.548Z,95491.20
2023-04-02T19:06:44.744Z,95494.80
2023-04-02T19:09:26.789Z,95496.80
2023-04-02T19:11:52.627Z,95503.00
2023-04-02T19:14:22.688Z,95503.40
2023-04-02T19:17:20.612Z,95507.60
2023-04-02T19:20:15.798Z,95516.80
2023-04-02T19:22:53.997Z,95523.20
2023-04-02T19:25:39.908Z,95523.00
2023-04-02T19:28:31.754Z,95530.80
2023-04-02T19:31:12.579Z,95533.60
2023-04-02T19:33:51.107Z,95536.00
2023-04-02T19:36:37.993Z,95542.20
2023-04-02T19:39:33.151Z,95547.00
2023-04-02T19:42:30.471Z,95546.80
2023-04-02T19:44:56.766Z,95551.60
2023-04-02T19:47:23.828Z,95572.60
2023-04-02T19:49:50.098Z,95566.20
2023-04-02T19:52:16.535Z,95570.00
2023-04-02T19:54:42.556Z,95575.60
2023-04-02T19:57:14.207Z,95579.20
2023-04-02T19:59:40.508Z,95584.40
2023-04-02T20:02:09.857Z,95588.00
2023-04-02T20:04:37.416Z,95586.80
2023-04-02T20:07:03.592Z,95590.00
2023-04-02T20:09:29.581Z,95593.80
2023-04-02T20:11:55.789Z,95591.00
2023-04-02T20:14:21.657Z,95594.20
2023-04-02T20:16:47.915Z,95589.80
2023-04-02T20:19:13.866Z,95598.20
2023-04-02T20:21:40.052Z,95604.00
2023-04-02T20:24:07.376Z,95604.40
2023-04-02T20:26:35.122Z,95608.40
2023-04-02T20:29:01.867Z,95616.40
2023-04-02T20:31:28.128Z,95619.00
2023-04-02T20:33:57.531Z,95631.60
2023-04-02T20:36:24.225Z,95633.40
2023-04-02T20:38:52.099Z,95634.00
2023-04-02T20:41:18.987Z,95637.20
2023-04-02T20:43:45.128Z,95639.80
2023-04-02T20:46:12.486Z,95638.20
2023-04-02T20:48:39.458Z,95636.60
2023-04-02T20:51:08.147Z,95642.00
2023-04-02T20:53:36.570Z,95653.80
2023-04-02T20:56:22.682Z,95655.60
2023-04-02T20:58:49.775Z,95664.80
2023-04-02T21:01:20.631Z,95671.00
2023-04-02T21:03:48.356Z,95674.40
2023-04-02T21:06:18.920Z,95680.00
2023-04-02T21:08:45.507Z,95684.60
2023-04-02T21:11:11.594Z,95691.80
2023-04-02T21:13:37.961Z,95685.40
2023-04-02T21:16:12.798Z,95685.60
2023-04-02T21:18:38.863Z,95689.40
2023-04-02T21:21:07.030Z,95692.40
2023-04-02T21:23:33.701Z,95693.40
2023-04-02T21:26:05.378Z,95691.20
2023-04-02T21:28:33.889Z,95691.40
2023-04-02T21:31:14.128Z,95698.00
2023-04-02T21:33:47.337Z,95700.80
2023-04-02T21:36:19.730Z,95703.00
2023-04-02T21:38:49.714Z,95708.80
2023-04-02T21:41:26.070Z,95710.00
2023-04-02T21:43:53.575Z,95710.80
2023-04-02T21:46:23.631Z,95718.60
2023-04-02T21:48:51.330Z,95715.40
2023-04-02T21:51:23.870Z,95712.20
2023-04-02T21:53:50.391Z,95717.40
2023-04-02T21:56:20.209Z,95730.80
2023-04-02T21:58:46.926Z,95729.80
2023-04-02T22:01:24.337Z,95737.20
2023-04-02T22:03:55.647Z,95739.80
2023-04-02T22:06:25.952Z,95737.40
2023-04-02T22:08:55.560Z,95739.40
2023-04-02T22:11:36.040Z,95734.60
2023-04-02T22:14:03.369Z,95732.80
2023-04-02T22:16:32.869Z,95737.40
2023-04-02T22:19:01.727Z,95742.80
2023-04-02T22:21:30.032Z,95749.60
2023-04-02T22:24:00.308Z,95754.40
2023-04-02T22:26:26.994Z,95758.60
2023-04-02T22:28:53.131Z,95762.20
2023-04-02T22:31:25.506Z,95763.60
2023-04-02T22:33:54.580Z,95769.20
2023-04-02T22:36:22.010Z,95765.20
2023-04-02T22:38:48.832Z,95764.40
2023-04-02T22:41:21.829Z,95769.80
2023-04-02T22:43:48.485Z,95768.80
2023-04-02T22:46:16.827Z,95769.20
2023-04-02T22:48:44.650Z,95765.80
2023-04-02T22:51:12.975Z,95770.00
2023-04-02T22:53:40.287Z,95771.20
2023-04-02T22:56:09.195Z,95767.60
2023-04-02T22:58:35.898Z,95768.20
2023-04-02T23:01:14.452Z,95767.00
2023-04-02T23:03:40.885Z,95771.20
2023-04-02T23:06:10.782Z,95771.80
2023-04-02T23:08:37.812Z,95770.40
2023-04-02T23:11:11.092Z,95770.20
2023-04-02T23:13:38.629Z,95768.60
2023-04-02T23:16:07.676Z,95772.40
2023-04-02T23:18:35.469Z,95770.40
2023-04-02T23:21:02.244Z,95770.00
2023-04-02T23:23:28.389Z,95772.00
2023-04-02T23:26:16.960Z,95769.20
2023-04-02T23:28:44.230Z,95771.20
2023-04-02T23:31:15.048Z,95772.40
2023-04-02T23:33:41.953Z,95769.00
2023-04-02T23:36:10.650Z,95768.60
2023-04-02T23:38:36.874Z,95770.00
2023-04-02T23:41:02.946Z,95766.20
2023-04-02T23:43:28.968Z,95764.40
2023-04-02T23:45:54.966Z,95764.80
2023-04-02T23:48:20.855Z,95759.00
2023-04-02T23:50:46.809Z,95763.60
2023-04-02T23:53:13.357Z,95765.20
2023-04-02T23:55:40.175Z,95767.40
2023-04-02T23:58:06.056Z,95764.00
